Santa Rita do Araguaia, Brazil
Current Conditions -  °F | °C
As of 1:00 PM on Sunday 23 Nov 2014 (Local Time) from SBCY Reporting Station
Light Rain Light Rain  
Wind Chill: 77°   Ceiling: 1000
Heat Index: 78°   Visibility: 1.8mi
Dew Point: 73°   Wind: 3mph
Humidity: 89%   Direction: 10°N
Pressure: 29.91"   Gusts: NA
Location:  17.33°S, 53.21°W
Report Text: SBCY 231500Z 01003KT 3000 -RA BKN010 OVC020 25/23 Q1013
Loading
Personal Weather Stations






























Interactive Weather Map New forecast layout! Learn more

10-Day Weather Forecast

Advertisements
Track Severe Weather on mobile